createdAt,value
2023-01-17T00:00:20.604Z,15.93
2023-01-17T00:01:22.382Z,16.26
2023-01-17T00:02:24.264Z,16.34
2023-01-17T00:03:26.162Z,16.93
2023-01-17T00:04:27.967Z,16.23
2023-01-17T00:05:29.780Z,18.19
2023-01-17T00:06:31.779Z,15.38
2023-01-17T00:07:33.578Z,19.82
2023-01-17T00:08:35.437Z,16.99
2023-01-17T00:09:37.259Z,19.29
2023-01-17T00:10:39.174Z,18.86
2023-01-17T00:11:40.977Z,16.70
2023-01-17T00:12:42.797Z,19.53
2023-01-17T00:13:44.651Z,24.58
2023-01-17T00:14:46.464Z,24.62
2023-01-17T00:15:48.272Z,29.54
2023-01-17T00:16:50.171Z,34.63
2023-01-17T00:17:51.993Z,35.41
2023-01-17T00:18:53.866Z,26.65
2023-01-17T00:19:55.676Z,23.55
2023-01-17T00:20:57.599Z,18.88
2023-01-17T00:21:59.460Z,19.39
2023-01-17T00:23:01.252Z,21.01
2023-01-17T00:24:03.109Z,17.78
2023-01-17T00:25:04.911Z,19.39
2023-01-17T00:26:07.029Z,19.24
2023-01-17T00:27:08.831Z,16.66
2023-01-17T00:28:10.650Z,16.27
2023-01-17T00:29:12.501Z,15.42
2023-01-17T00:30:15.322Z,14.77
2023-01-17T00:31:17.298Z,14.87
2023-01-17T00:32:19.152Z,14.86
2023-01-17T00:33:20.958Z,15.39
2023-01-17T00:34:22.803Z,15.49
2023-01-17T00:35:24.604Z,13.61
2023-01-17T00:36:26.504Z,13.33
2023-01-17T00:37:28.340Z,14.23
2023-01-17T00:38:30.176Z,13.35
2023-01-17T00:39:32.010Z,13.85
2023-01-17T00:40:33.915Z,12.69
2023-01-17T00:41:35.722Z,12.37
2023-01-17T00:42:37.548Z,13.16
2023-01-17T00:43:39.551Z,13.42
2023-01-17T00:44:41.430Z,13.95
2023-01-17T00:45:43.233Z,13.15
2023-01-17T00:46:45.246Z,12.43
2023-01-17T00:47:47.047Z,15.21
2023-01-17T00:48:48.851Z,12.99
2023-01-17T00:49:50.704Z,11.49
2023-01-17T00:50:52.719Z,12.49
2023-01-17T00:51:54.527Z,13.22
2023-01-17T00:52:56.475Z,12.12
2023-01-17T00:53:58.271Z,12.79
2023-01-17T00:55:00.143Z,12.80
2023-01-17T00:56:01.929Z,12.99
2023-01-17T00:57:03.763Z,13.45
2023-01-17T00:58:05.566Z,12.63
2023-01-17T00:59:07.358Z,12.49
2023-01-17T01:00:09.621Z,13.01
2023-01-17T01:01:11.482Z,12.95
2023-01-17T01:02:13.353Z,11.59
2023-01-17T01:03:15.173Z,11.85
2023-01-17T01:04:16.987Z,13.67
2023-01-17T01:05:18.855Z,13.60
2023-01-17T01:06:20.759Z,13.14
2023-01-17T01:07:22.575Z,11.48
2023-01-17T01:08:24.413Z,12.96
2023-01-17T01:09:26.250Z,13.50
2023-01-17T01:10:28.284Z,13.57
2023-01-17T01:11:30.110Z,12.69
2023-01-17T01:12:31.924Z,12.52
2023-01-17T01:13:33.739Z,12.72
2023-01-17T01:14:35.626Z,11.50
2023-01-17T01:15:37.473Z,13.47
2023-01-17T01:16:39.397Z,12.60
2023-01-17T01:17:41.205Z,13.21
2023-01-17T01:18:43.031Z,12.91
2023-01-17T01:19:44.846Z,13.98
2023-01-17T01:20:46.707Z,13.50
2023-01-17T01:21:48.535Z,13.40
2023-01-17T01:22:50.348Z,13.19
2023-01-17T01:23:52.620Z,11.15
2023-01-17T01:24:54.499Z,13.31
2023-01-17T01:25:56.343Z,12.22
2023-01-17T01:26:58.259Z,13.66
2023-01-17T01:28:00.111Z,13.29
2023-01-17T01:29:01.990Z,11.89
2023-01-17T01:30:03.905Z,13.69
2023-01-17T01:31:05.767Z,12.69
2023-01-17T01:32:07.602Z,11.48
2023-01-17T01:33:09.414Z,13.53
2023-01-17T01:34:11.226Z,11.83
2023-01-17T01:35:13.044Z,14.94
2023-01-17T01:36:15.018Z,13.77
2023-01-17T01:37:16.831Z,13.56
2023-01-17T01:38:18.637Z,12.45
2023-01-17T01:39:20.518Z,14.06
2023-01-17T01:40:22.438Z,13.15
2023-01-17T01:41:24.296Z,13.06
2023-01-17T01:42:26.103Z,12.49
2023-01-17T01:43:27.933Z,14.17
2023-01-17T01:44:29.760Z,13.99
2023-01-17T01:45:31.614Z,14.97
2023-01-17T01:46:33.599Z,14.22
2023-01-17T01:47:35.418Z,14.76
2023-01-17T01:48:37.220Z,13.40
2023-01-17T01:49:39.038Z,11.67
2023-01-17T01:50:40.938Z,14.55
2023-01-17T01:51:42.823Z,13.31
2023-01-17T01:52:44.656Z,14.04
2023-01-17T01:53:46.445Z,12.04
2023-01-17T01:54:48.460Z,13.00
2023-01-17T01:55:50.271Z,11.57
2023-01-17T01:56:52.435Z,14.43
2023-01-17T01:57:54.243Z,14.27
2023-01-17T01:58:56.052Z,13.63
2023-01-17T01:59:57.866Z,13.58
2023-01-17T02:00:59.855Z,13.19
2023-01-17T02:02:01.767Z,15.04
2023-01-17T02:03:03.565Z,16.26
2023-01-17T02:04:05.448Z,14.69
2023-01-17T02:05:07.271Z,13.17
2023-01-17T02:06:09.797Z,13.84
2023-01-17T02:07:11.665Z,14.73
2023-01-17T02:08:13.498Z,14.41
2023-01-17T02:09:15.302Z,15.22
2023-01-17T02:10:17.260Z,14.07
2023-01-17T02:11:19.069Z,15.47
2023-01-17T02:12:20.944Z,15.42
2023-01-17T02:13:22.758Z,15.99
2023-01-17T02:14:24.597Z,15.31
2023-01-17T02:15:26.388Z,13.39
2023-01-17T02:16:28.507Z,15.78
2023-01-17T02:17:30.350Z,15.29
2023-01-17T02:18:32.155Z,13.69
2023-01-17T02:19:33.963Z,15.84
2023-01-17T02:20:35.907Z,14.75
2023-01-17T02:21:37.804Z,15.31
2023-01-17T02:22:39.654Z,14.76
2023-01-17T02:23:41.460Z,16.59
2023-01-17T02:24:43.293Z,15.25
2023-01-17T02:25:45.135Z,17.06
2023-01-17T02:26:47.045Z,17.87
2023-01-17T02:27:48.904Z,15.27
2023-01-17T02:28:50.716Z,15.53
2023-01-17T02:29:52.539Z,16.32
2023-01-17T02:30:54.485Z,16.39
2023-01-17T02:31:56.399Z,17.37
2023-01-17T02:32:58.266Z,16.66
2023-01-17T02:34:00.105Z,18.48
2023-01-17T02:35:01.879Z,17.42
2023-01-17T02:36:03.717Z,18.03
2023-01-17T02:37:05.822Z,15.45
2023-01-17T02:38:07.666Z,16.41
2023-01-17T02:39:09.506Z,16.19
2023-01-17T02:40:12.021Z,15.63
2023-01-17T02:41:13.876Z,16.53
2023-01-17T02:42:15.791Z,15.68
2023-01-17T02:43:17.650Z,14.39
2023-01-17T02:44:19.463Z,16.25
2023-01-17T02:45:21.276Z,16.87
2023-01-17T02:46:23.220Z,18.26
2023-01-17T02:47:25.017Z,16.34
2023-01-17T02:48:26.883Z,15.41
2023-01-17T02:49:28.732Z,15.11
2023-01-17T02:50:30.676Z,16.90
2023-01-17T02:51:32.477Z,16.51
2023-01-17T02:52:34.295Z,15.24
2023-01-17T02:53:36.165Z,17.25
2023-01-17T02:54:37.992Z,18.59
2023-01-17T02:55:39.813Z,16.92
2023-01-17T02:56:41.825Z,16.68
2023-01-17T02:57:43.649Z,16.89
2023-01-17T02:58:45.519Z,18.96
2023-01-17T02:59:47.325Z,16.60
2023-01-17T03:00:49.428Z,17.48
2023-01-17T03:01:51.378Z,17.99
2023-01-17T03:02:53.352Z,16.53
2023-01-17T03:03:55.252Z,18.45
2023-01-17T03:04:57.091Z,17.69
2023-01-17T03:05:58.909Z,17.54
2023-01-17T03:07:00.830Z,18.25
2023-01-17T03:08:02.640Z,15.15
2023-01-17T03:09:04.517Z,14.65
2023-01-17T03:10:06.445Z,18.22
2023-01-17T03:11:08.238Z,19.93
2023-01-17T03:12:10.265Z,18.70
2023-01-17T03:13:12.054Z,16.70
2023-01-17T03:14:14.037Z,17.05
2023-01-17T03:15:15.846Z,19.39
2023-01-17T03:16:17.884Z,17.01
2023-01-17T03:17:19.683Z,18.52
2023-01-17T03:18:21.460Z,20.26
2023-01-17T03:19:23.305Z,18.96
2023-01-17T03:20:25.405Z,19.69
2023-01-17T03:21:27.226Z,16.74
2023-01-17T03:22:29.050Z,20.27
2023-01-17T03:23:30.854Z,19.86
2023-01-17T03:24:32.708Z,19.14
2023-01-17T03:25:34.517Z,18.79
2023-01-17T03:26:36.441Z,16.32
2023-01-17T03:27:38.396Z,19.22
2023-01-17T03:28:40.228Z,19.70
2023-01-17T03:29:42.090Z,18.19
2023-01-17T03:30:44.126Z,18.17
2023-01-17T03:31:45.951Z,18.20
2023-01-17T03:32:47.750Z,21.91
2023-01-17T03:33:49.551Z,18.32
2023-01-17T03:34:51.414Z,20.08
2023-01-17T03:35:53.239Z,25.07
2023-01-17T03:36:55.143Z,20.32
2023-01-17T03:37:56.978Z,20.11
2023-01-17T03:38:58.803Z,19.13
2023-01-17T03:40:00.642Z,19.12
2023-01-17T03:41:02.455Z,18.39
2023-01-17T03:42:04.299Z,21.05
2023-01-17T03:43:06.150Z,19.43
2023-01-17T03:44:07.974Z,20.36
2023-01-17T03:45:09.808Z,19.79
2023-01-17T03:46:11.827Z,18.61
2023-01-17T03:47:13.633Z,18.64
2023-01-17T03:48:15.621Z,21.74
2023-01-17T03:49:17.407Z,21.11
2023-01-17T03:50:19.249Z,19.39
2023-01-17T03:51:21.074Z,20.21
2023-01-17T03:52:22.925Z,19.19
2023-01-17T03:53:24.736Z,20.49
2023-01-17T03:54:26.537Z,21.33
2023-01-17T03:55:28.392Z,21.21
2023-01-17T03:56:30.503Z,20.02
2023-01-17T03:57:32.307Z,20.50
2023-01-17T03:58:34.160Z,21.06
2023-01-17T03:59:35.971Z,21.40
2023-01-17T04:00:37.960Z,19.65
2023-01-17T04:01:39.879Z,22.89
2023-01-17T04:02:41.835Z,22.09
2023-01-17T04:03:43.709Z,20.01
2023-01-17T04:04:45.511Z,20.21
2023-01-17T04:05:47.355Z,22.84
2023-01-17T04:06:49.168Z,20.91
2023-01-17T04:07:51.808Z,24.26
2023-01-17T04:08:53.798Z,22.31
2023-01-17T04:09:55.610Z,22.12
2023-01-17T04:10:57.558Z,20.95
2023-01-17T04:11:59.373Z,21.03
2023-01-17T04:13:01.188Z,21.04
2023-01-17T04:14:03.075Z,21.13
2023-01-17T04:15:04.888Z,21.15
2023-01-17T04:16:06.944Z,19.87
2023-01-17T04:17:08.763Z,24.23
2023-01-17T04:18:10.573Z,22.84
2023-01-17T04:19:12.380Z,24.63
2023-01-17T04:20:14.396Z,24.66
2023-01-17T04:21:16.264Z,22.39
2023-01-17T04:22:18.068Z,23.95
2023-01-17T04:23:20.033Z,21.74
2023-01-17T04:24:21.873Z,21.86
2023-01-17T04:25:23.679Z,24.16
2023-01-17T04:26:25.631Z,25.37
2023-01-17T04:27:27.448Z,24.01
2023-01-17T04:28:29.256Z,23.95
2023-01-17T04:29:31.085Z,22.20
2023-01-17T04:30:33.053Z,23.08
2023-01-17T04:31:34.996Z,23.58
2023-01-17T04:32:36.753Z,23.61
2023-01-17T04:33:38.555Z,24.15
2023-01-17T04:34:40.388Z,24.27
2023-01-17T04:35:42.214Z,22.88
2023-01-17T04:36:44.275Z,21.57
2023-01-17T04:37:46.087Z,23.92
2023-01-17T04:38:47.874Z,23.77
2023-01-17T04:39:49.697Z,24.73
2023-01-17T04:40:51.702Z,25.28
2023-01-17T04:41:53.547Z,22.20
2023-01-17T04:42:55.365Z,21.93
2023-01-17T04:43:57.167Z,23.47
2023-01-17T04:44:59.058Z,25.35
2023-01-17T04:46:00.904Z,26.76
2023-01-17T04:47:02.847Z,24.17
2023-01-17T04:48:04.630Z,26.71
2023-01-17T04:49:06.439Z,23.74
2023-01-17T04:50:08.360Z,24.17
2023-01-17T04:51:10.145Z,25.47
2023-01-17T04:52:12.021Z,23.25
2023-01-17T04:53:13.831Z,28.65
2023-01-17T04:54:15.638Z,23.53
2023-01-17T04:55:17.454Z,24.40
2023-01-17T04:56:19.367Z,25.39
2023-01-17T04:57:21.263Z,25.97
2023-01-17T04:58:23.049Z,24.46
2023-01-17T04:59:24.844Z,25.49
2023-01-17T05:00:26.827Z,25.55
2023-01-17T05:01:30.606Z,25.94
2023-01-17T05:02:32.542Z,25.64
2023-01-17T05:03:34.430Z,25.43
2023-01-17T05:04:36.251Z,26.38
2023-01-17T05:05:38.056Z,24.50
2023-01-17T05:06:39.981Z,27.09
2023-01-17T05:07:41.842Z,26.90
2023-01-17T05:08:43.654Z,26.21
2023-01-17T05:09:45.473Z,26.15
2023-01-17T05:10:47.472Z,26.97
2023-01-17T05:11:49.291Z,24.23
2023-01-17T05:12:51.150Z,23.41
2023-01-17T05:13:52.993Z,26.84
2023-01-17T05:14:54.783Z,26.71
2023-01-17T05:15:56.693Z,27.14
2023-01-17T05:16:58.658Z,24.81
2023-01-17T05:18:00.506Z,24.94
2023-01-17T05:19:02.309Z,27.54
2023-01-17T05:20:04.226Z,28.07
2023-01-17T05:21:06.146Z,23.68
2023-01-17T05:22:07.978Z,27.64
2023-01-17T05:23:09.847Z,28.85
2023-01-17T05:24:11.649Z,27.69
2023-01-17T05:25:13.482Z,30.89
2023-01-17T05:26:15.300Z,28.08
2023-01-17T05:27:17.102Z,24.31
2023-01-17T05:28:18.954Z,26.69
2023-01-17T05:29:20.784Z,27.91
2023-01-17T05:30:22.730Z,25.57
2023-01-17T05:31:24.572Z,26.79
2023-01-17T05:32:26.427Z,27.55
2023-01-17T05:33:28.281Z,23.52
2023-01-17T05:34:30.107Z,29.15
2023-01-17T05:35:31.909Z,25.26
2023-01-17T05:36:33.922Z,24.82
2023-01-17T05:37:35.744Z,28.91
2023-01-17T05:38:37.628Z,26.75
2023-01-17T05:39:39.428Z,30.15
2023-01-17T05:40:41.480Z,28.23
2023-01-17T05:41:43.289Z,26.11
2023-01-17T05:42:45.114Z,26.80
2023-01-17T05:43:46.976Z,29.79
2023-01-17T05:44:48.778Z,26.11
2023-01-17T05:45:50.630Z,26.33
2023-01-17T05:46:52.557Z,25.85
2023-01-17T05:47:54.450Z,27.91
2023-01-17T05:48:56.340Z,28.89
2023-01-17T05:49:58.163Z,29.85
2023-01-17T05:51:00.202Z,26.94
2023-01-17T05:52:01.992Z,26.31
2023-01-17T05:53:03.801Z,27.43
2023-01-17T05:54:05.663Z,27.21
2023-01-17T05:55:07.481Z,26.44
2023-01-17T05:56:10.344Z,29.06
2023-01-17T05:57:12.182Z,27.16
2023-01-17T05:58:14.002Z,27.02
2023-01-17T05:59:18.737Z,27.09
2023-01-17T06:00:19.585Z,27.70
2023-01-17T06:01:21.479Z,26.49
2023-01-17T06:02:23.401Z,24.49
2023-01-17T06:03:25.219Z,26.31
2023-01-17T06:04:27.155Z,27.31
2023-01-17T06:05:28.990Z,29.01
2023-01-17T06:06:31.022Z,30.69
2023-01-17T06:07:32.831Z,31.64
2023-01-17T06:08:34.650Z,28.31
2023-01-17T06:09:36.499Z,27.37
2023-01-17T06:10:38.433Z,29.25
2023-01-17T06:11:40.263Z,26.06
2023-01-17T06:12:42.074Z,24.34
2023-01-17T06:13:43.900Z,35.69
2023-01-17T06:14:45.765Z,28.74
2023-01-17T06:15:47.659Z,27.09
2023-01-17T06:16:49.722Z,28.42
2023-01-17T06:17:51.635Z,26.73
2023-01-17T06:18:53.446Z,29.39
2023-01-17T06:19:55.300Z,27.35
2023-01-17T06:20:57.112Z,24.94
2023-01-17T06:21:58.928Z,28.94
2023-01-17T06:23:00.749Z,25.25
2023-01-17T06:24:04.225Z,27.52
2023-01-17T06:25:06.230Z,28.83
2023-01-17T06:26:09.276Z,27.93
2023-01-17T06:27:11.207Z,30.01
2023-01-17T06:28:13.016Z,30.18
2023-01-17T06:29:15.251Z,28.87
2023-01-17T06:30:17.216Z,28.43
2023-01-17T06:31:19.107Z,28.86
2023-01-17T06:32:21.005Z,27.95
2023-01-17T06:33:22.834Z,31.41
2023-01-17T06:34:24.761Z,27.51
2023-01-17T06:35:26.618Z,29.64
2023-01-17T06:36:28.651Z,28.50
2023-01-17T06:37:30.456Z,30.09
2023-01-17T06:38:32.276Z,34.13
2023-01-17T06:39:34.089Z,29.13
2023-01-17T06:40:36.068Z,31.63
2023-01-17T06:41:37.906Z,33.51
2023-01-17T06:42:39.705Z,26.67
2023-01-17T06:43:41.647Z,28.50
2023-01-17T06:44:43.482Z,28.05
2023-01-17T06:45:45.442Z,31.31
2023-01-17T06:46:47.553Z,30.77
2023-01-17T06:47:49.412Z,30.79
2023-01-17T06:48:51.270Z,29.58
2023-01-17T06:49:53.079Z,30.85
2023-01-17T06:50:55.060Z,27.81
2023-01-17T06:51:56.920Z,30.15
2023-01-17T06:52:58.743Z,29.77
2023-01-17T06:54:00.720Z,29.90
2023-01-17T06:55:02.505Z,29.73
2023-01-17T06:56:04.457Z,28.23
2023-01-17T06:57:06.332Z,28.64
2023-01-17T06:58:08.340Z,31.03
2023-01-17T06:59:10.366Z,31.51
2023-01-17T07:00:12.742Z,30.21
2023-01-17T07:01:14.773Z,30.67
2023-01-17T07:02:16.704Z,29.89
2023-01-17T07:03:18.569Z,28.99
2023-01-17T07:04:20.467Z,31.09
2023-01-17T07:05:22.307Z,28.45
2023-01-17T07:06:24.252Z,31.94
2023-01-17T07:07:26.058Z,25.24
2023-01-17T07:08:27.893Z,31.54
2023-01-17T07:09:29.737Z,27.82
2023-01-17T07:10:31.658Z,28.70
2023-01-17T07:11:33.501Z,30.53
2023-01-17T07:12:35.326Z,29.14
2023-01-17T07:13:37.159Z,36.23
2023-01-17T07:14:39.067Z,35.26
2023-01-17T07:15:41.042Z,29.69
2023-01-17T07:16:43.110Z,32.01
2023-01-17T07:17:44.924Z,33.20
2023-01-17T07:18:46.728Z,31.81
2023-01-17T07:19:48.637Z,34.20
2023-01-17T07:20:50.587Z,30.53
2023-01-17T07:21:52.433Z,31.47
2023-01-17T07:22:54.237Z,31.27
2023-01-17T07:23:56.072Z,29.39
2023-01-17T07:24:57.891Z,31.11
2023-01-17T07:25:59.697Z,34.84
2023-01-17T07:27:01.558Z,31.71
2023-01-17T07:28:03.371Z,32.98
2023-01-17T07:29:05.211Z,29.89
2023-01-17T07:30:07.444Z,31.06
2023-01-17T07:31:09.256Z,30.79
2023-01-17T07:32:11.118Z,28.39
2023-01-17T07:33:13.037Z,32.74
2023-01-17T07:34:14.848Z,36.28
2023-01-17T07:35:16.835Z,37.33
2023-01-17T07:36:18.767Z,40.21
2023-01-17T07:37:20.636Z,30.47
2023-01-17T07:38:22.423Z,31.41
2023-01-17T07:39:24.250Z,33.49
2023-01-17T07:40:26.187Z,32.46
2023-01-17T07:41:28.092Z,32.39
2023-01-17T07:42:29.936Z,32.95
2023-01-17T07:43:31.771Z,32.06
2023-01-17T07:44:33.603Z,33.18
2023-01-17T07:45:35.442Z,34.56
2023-01-17T07:46:37.615Z,31.35
2023-01-17T07:47:39.524Z,30.46
2023-01-17T07:48:41.327Z,33.86
2023-01-17T07:49:43.156Z,34.84
2023-01-17T07:50:45.296Z,31.82
2023-01-17T07:51:47.108Z,29.77
2023-01-17T07:52:48.971Z,30.91
2023-01-17T07:53:50.788Z,28.34
2023-01-17T07:54:52.595Z,31.43
2023-01-17T07:55:54.441Z,33.08
2023-01-17T07:56:56.439Z,29.67
2023-01-17T07:57:58.314Z,32.58
2023-01-17T07:59:00.115Z,31.74
2023-01-17T08:00:02.229Z,32.89
2023-01-17T08:01:04.170Z,30.70
2023-01-17T08:02:05.995Z,27.89
2023-01-17T08:03:07.925Z,32.88
2023-01-17T08:04:09.794Z,32.68
2023-01-17T08:05:11.659Z,32.43
2023-01-17T08:06:13.631Z,34.37
2023-01-17T08:07:15.457Z,30.07
2023-01-17T08:08:17.868Z,28.20
2023-01-17T08:09:19.639Z,31.27
2023-01-17T08:10:21.648Z,32.36
2023-01-17T08:11:23.465Z,36.15
2023-01-17T08:12:25.266Z,32.90
2023-01-17T08:13:29.087Z,31.41
2023-01-17T08:14:30.798Z,32.23
2023-01-17T08:15:32.610Z,38.16
2023-01-17T08:16:34.563Z,39.31
2023-01-17T08:17:36.448Z,33.87
2023-01-17T08:18:38.330Z,35.14
2023-01-17T08:19:40.161Z,33.98
2023-01-17T08:20:42.056Z,30.49
2023-01-17T08:21:44.149Z,35.97
2023-01-17T08:22:45.990Z,29.95
2023-01-17T08:23:47.844Z,31.28
2023-01-17T08:24:49.683Z,32.65
2023-01-17T08:25:51.508Z,31.63
2023-01-17T08:26:53.525Z,30.05
2023-01-17T08:27:55.348Z,30.17
2023-01-17T08:28:57.224Z,30.58
2023-01-17T08:29:59.043Z,30.65
2023-01-17T08:31:00.980Z,31.35
2023-01-17T08:32:02.810Z,33.47
2023-01-17T08:33:04.701Z,30.66
2023-01-17T08:34:06.566Z,31.15
2023-01-17T08:35:08.531Z,32.83
2023-01-17T08:36:10.698Z,32.91
2023-01-17T08:37:12.658Z,31.16
2023-01-17T08:38:14.490Z,31.61
2023-01-17T08:39:16.343Z,31.04
2023-01-17T08:40:18.367Z,32.37
2023-01-17T08:41:20.196Z,32.63
2023-01-17T08:42:22.043Z,35.23
2023-01-17T08:43:23.865Z,33.27
2023-01-17T08:44:25.716Z,32.78
2023-01-17T08:45:27.618Z,30.66
2023-01-17T08:46:31.385Z,35.51
2023-01-17T08:47:33.183Z,30.05
2023-01-17T08:48:35.012Z,32.57
2023-01-17T08:49:36.867Z,29.96
2023-01-17T08:50:38.820Z,31.05
2023-01-17T08:51:40.672Z,32.87
2023-01-17T08:52:42.521Z,27.02
2023-01-17T08:53:44.338Z,34.42
2023-01-17T08:54:46.192Z,31.51
2023-01-17T08:55:48.012Z,34.55
2023-01-17T08:56:49.932Z,29.46
2023-01-17T08:57:52.243Z,28.85
2023-01-17T08:58:54.151Z,30.42
2023-01-17T08:59:55.973Z,29.47
2023-01-17T09:00:57.970Z,30.34
2023-01-17T09:02:00.001Z,27.13
2023-01-17T09:03:01.906Z,28.80
2023-01-17T09:04:03.743Z,30.27
2023-01-17T09:05:05.711Z,33.87
2023-01-17T09:06:08.581Z,39.39
2023-01-17T09:07:10.402Z,34.63
2023-01-17T09:08:12.342Z,32.49
2023-01-17T09:09:14.153Z,33.01
2023-01-17T09:10:16.025Z,34.92
2023-01-17T09:11:17.831Z,45.74
2023-01-17T09:12:19.650Z,36.84
2023-01-17T09:13:21.477Z,37.98
2023-01-17T09:14:23.306Z,43.23
2023-01-17T09:15:25.137Z,36.49
2023-01-17T09:16:27.103Z,35.73
2023-01-17T09:17:28.906Z,35.08
2023-01-17T09:18:30.715Z,31.45
2023-01-17T09:19:32.532Z,32.23
2023-01-17T09:20:34.529Z,30.64
2023-01-17T09:21:36.335Z,32.28
2023-01-17T09:22:38.140Z,33.31
2023-01-17T09:23:39.977Z,31.93
2023-01-17T09:24:41.783Z,37.03
2023-01-17T09:25:43.668Z,34.92
2023-01-17T09:26:45.492Z,32.93
2023-01-17T09:27:47.295Z,34.45
2023-01-17T09:28:49.113Z,35.07
2023-01-17T09:29:51.058Z,34.85
2023-01-17T09:30:53.100Z,32.62
2023-01-17T09:31:54.962Z,33.59
2023-01-17T09:32:56.774Z,32.81
2023-01-17T09:33:58.603Z,30.60
2023-01-17T09:35:00.427Z,32.28
2023-01-17T09:36:02.369Z,30.41
2023-01-17T09:37:04.194Z,33.46
2023-01-17T09:38:06.007Z,34.79
2023-01-17T09:39:07.847Z,33.55
2023-01-17T09:40:09.762Z,34.99
2023-01-17T09:41:11.641Z,34.55
2023-01-17T09:42:13.442Z,35.15
2023-01-17T09:43:15.238Z,35.29
2023-01-17T09:44:17.040Z,33.69
2023-01-17T09:45:18.849Z,35.57
2023-01-17T09:46:20.861Z,33.29
2023-01-17T09:47:22.752Z,34.56
2023-01-17T09:48:24.577Z,34.85
2023-01-17T09:49:27.456Z,36.74
2023-01-17T09:50:29.393Z,32.08
2023-01-17T09:51:31.263Z,30.75
2023-01-17T09:52:33.078Z,34.22
2023-01-17T09:53:34.907Z,35.47
2023-01-17T09:54:36.751Z,33.99
2023-01-17T09:55:38.638Z,32.15
2023-01-17T09:56:40.726Z,33.73
2023-01-17T09:57:42.552Z,36.56
2023-01-17T09:58:44.365Z,37.84
2023-01-17T09:59:46.200Z,35.40
2023-01-17T10:00:48.175Z,34.56
2023-01-17T10:01:50.277Z,35.66
2023-01-17T10:02:52.333Z,34.35
2023-01-17T10:03:54.444Z,32.45
2023-01-17T10:04:56.475Z,32.38
2023-01-17T10:05:58.262Z,34.77
2023-01-17T10:07:00.213Z,34.59
2023-01-17T10:08:04.469Z,28.58
2023-01-17T10:09:05.702Z,32.85
2023-01-17T10:10:08.012Z,33.93
2023-01-17T10:11:09.816Z,34.64
2023-01-17T10:12:11.668Z,35.57
2023-01-17T10:13:13.482Z,32.66
2023-01-17T10:14:15.299Z,35.39
2023-01-17T10:15:17.120Z,33.18
2023-01-17T10:16:19.160Z,32.18
2023-01-17T10:17:21.123Z,31.25
2023-01-17T10:18:29.931Z,35.17
2023-01-17T10:19:26.551Z,35.70
2023-01-17T10:20:28.589Z,34.53
2023-01-17T10:21:30.414Z,34.78
2023-01-17T10:22:32.311Z,35.35
2023-01-17T10:23:34.118Z,34.79
2023-01-17T10:24:35.956Z,37.45
2023-01-17T10:25:37.810Z,35.89
2023-01-17T10:26:39.723Z,36.72
2023-01-17T10:27:41.582Z,36.93
2023-01-17T10:28:43.408Z,35.42
2023-01-17T10:29:45.222Z,37.33
2023-01-17T10:30:47.374Z,38.51
2023-01-17T10:31:49.171Z,36.38
2023-01-17T10:32:51.043Z,37.91
2023-01-17T10:33:52.903Z,40.12
2023-01-17T10:34:54.803Z,35.39
2023-01-17T10:35:56.646Z,35.18
2023-01-17T10:36:58.857Z,38.89
2023-01-17T10:38:00.754Z,35.61
2023-01-17T10:39:02.578Z,35.47
2023-01-17T10:40:04.488Z,39.20
2023-01-17T10:41:06.432Z,34.37
2023-01-17T10:42:08.265Z,38.18
2023-01-17T10:43:10.141Z,36.93
2023-01-17T10:44:11.975Z,38.21
2023-01-17T10:45:13.787Z,45.23
2023-01-17T10:46:15.782Z,40.24
2023-01-17T10:47:17.657Z,39.90
2023-01-17T10:48:20.196Z,40.48
2023-01-17T10:49:23.048Z,39.32
2023-01-17T10:50:24.865Z,44.63
2023-01-17T10:51:26.701Z,41.96
2023-01-17T10:52:28.531Z,42.28
2023-01-17T10:53:30.410Z,39.83
2023-01-17T10:54:32.216Z,49.60
2023-01-17T10:55:34.093Z,43.00
2023-01-17T10:56:36.019Z,38.07
2023-01-17T10:57:37.843Z,38.61
2023-01-17T10:58:39.703Z,39.01
2023-01-17T10:59:41.534Z,36.61
2023-01-17T11:00:43.464Z,42.27
2023-01-17T11:01:46.618Z,42.07
2023-01-17T11:02:48.461Z,42.18
2023-01-17T11:03:50.414Z,44.21
2023-01-17T11:04:52.228Z,41.53
2023-01-17T11:05:54.149Z,40.03
2023-01-17T11:06:58.302Z,36.19
2023-01-17T11:07:59.761Z,35.07
2023-01-17T11:09:01.685Z,35.26
2023-01-17T11:10:03.617Z,35.31
2023-01-17T11:11:05.480Z,38.66
2023-01-17T11:12:07.351Z,37.14
2023-01-17T11:13:09.249Z,40.36
2023-01-17T11:14:11.232Z,35.93
2023-01-17T11:15:13.037Z,38.59
2023-01-17T11:16:14.987Z,38.35
2023-01-17T11:17:16.813Z,36.43
2023-01-17T11:18:18.674Z,36.84
2023-01-17T11:19:20.525Z,37.05
2023-01-17T11:20:22.446Z,33.84
2023-01-17T11:21:24.295Z,40.39
2023-01-17T11:22:26.156Z,41.24
2023-01-17T11:23:27.956Z,40.34
2023-01-17T11:24:29.802Z,38.75
2023-01-17T11:25:31.625Z,37.16
2023-01-17T11:26:33.550Z,37.99
2023-01-17T11:27:35.466Z,37.54
2023-01-17T11:28:37.331Z,34.65
2023-01-17T11:29:39.196Z,38.31
2023-01-17T11:30:41.141Z,36.06
2023-01-17T11:31:42.925Z,35.89
2023-01-17T11:32:44.738Z,34.16
2023-01-17T11:33:46.597Z,38.04
2023-01-17T11:34:48.492Z,38.21
2023-01-17T11:35:50.304Z,39.53
2023-01-17T11:36:52.223Z,36.50
2023-01-17T11:37:54.064Z,37.09
2023-01-17T11:38:55.878Z,36.16
2023-01-17T11:39:57.731Z,35.29
2023-01-17T11:40:59.660Z,34.48
2023-01-17T11:42:01.493Z,31.04
2023-01-17T11:43:03.420Z,32.41
2023-01-17T11:44:05.258Z,33.96
2023-01-17T11:45:07.171Z,32.93
2023-01-17T11:46:09.776Z,34.76
2023-01-17T11:47:11.654Z,36.06
2023-01-17T11:48:13.512Z,34.78
2023-01-17T11:49:15.488Z,33.29
2023-01-17T11:50:17.488Z,33.67
2023-01-17T11:51:19.349Z,36.03
2023-01-17T11:52:21.165Z,32.10
2023-01-17T11:53:23.068Z,36.82
2023-01-17T11:54:24.928Z,34.93
2023-01-17T11:55:26.882Z,35.24
2023-01-17T11:56:29.145Z,33.57
2023-01-17T11:57:31.199Z,34.15
2023-01-17T11:58:33.188Z,34.51
2023-01-17T11:59:35.112Z,34.07
2023-01-17T12:00:37.430Z,34.63
2023-01-17T12:01:39.557Z,36.42
2023-01-17T12:02:41.426Z,36.81
2023-01-17T12:03:43.287Z,37.32
2023-01-17T12:04:45.154Z,34.95
2023-01-17T12:05:47.160Z,33.03
2023-01-17T12:06:57.732Z,35.54
2023-01-17T12:07:52.811Z,34.76
2023-01-17T12:08:54.643Z,38.25
2023-01-17T12:09:56.540Z,35.03
2023-01-17T12:10:58.597Z,35.09
2023-01-17T12:12:00.431Z,34.61
2023-01-17T12:13:02.267Z,35.37
2023-01-17T12:14:04.833Z,34.27
2023-01-17T12:15:06.820Z,33.98
2023-01-17T12:16:08.947Z,33.54
2023-01-17T12:17:10.846Z,31.59
2023-01-17T12:18:12.701Z,32.21
2023-01-17T12:19:14.536Z,37.11
2023-01-17T12:20:16.758Z,35.95
2023-01-17T12:21:18.742Z,33.70
2023-01-17T12:22:20.681Z,35.02
2023-01-17T12:23:22.547Z,32.78
2023-01-17T12:24:24.355Z,36.19
2023-01-17T12:25:26.198Z,38.15
2023-01-17T12:26:28.458Z,35.89
2023-01-17T12:27:30.283Z,36.78
2023-01-17T12:28:32.112Z,36.03
2023-01-17T12:29:34.104Z,36.53
2023-01-17T12:30:36.133Z,37.18
2023-01-17T12:31:38.132Z,33.23
2023-01-17T12:32:40.049Z,35.93
2023-01-17T12:33:41.997Z,35.94
2023-01-17T12:34:43.794Z,34.61
2023-01-17T12:35:45.618Z,33.25
2023-01-17T12:36:49.331Z,31.94
2023-01-17T12:38:04.145Z,32.20
2023-01-17T12:38:54.829Z,35.24
2023-01-17T12:39:56.639Z,34.65
2023-01-17T12:40:58.674Z,34.92
2023-01-17T12:42:00.780Z,34.18
2023-01-17T12:43:02.969Z,35.15
2023-01-17T12:44:05.428Z,34.85
2023-01-17T12:45:07.421Z,34.21
2023-01-17T12:46:10.608Z,34.33
2023-01-17T12:47:12.586Z,33.09
2023-01-17T12:48:14.551Z,34.91
2023-01-17T12:49:16.829Z,35.02
2023-01-17T12:50:19.594Z,37.18
2023-01-17T12:51:21.827Z,35.62
2023-01-17T12:52:23.913Z,30.90
2023-01-17T12:53:25.772Z,33.79
2023-01-17T12:54:27.781Z,32.69
2023-01-17T12:55:29.994Z,34.35
2023-01-17T12:56:32.047Z,35.61
2023-01-17T12:57:33.916Z,33.50
2023-01-17T12:58:35.908Z,34.91
2023-01-17T12:59:37.800Z,38.05
2023-01-17T13:00:39.996Z,34.77
2023-01-17T13:01:42.084Z,34.64
2023-01-17T13:02:44.003Z,36.62
2023-01-17T13:03:45.887Z,37.77
2023-01-17T13:04:58.373Z,35.82
2023-01-17T13:05:51.616Z,33.96
2023-01-17T13:06:54.159Z,33.15
2023-01-17T13:07:56.078Z,34.76
2023-01-17T13:08:57.975Z,32.37
2023-01-17T13:09:59.890Z,36.26
2023-01-17T13:11:01.739Z,32.45
2023-01-17T13:12:03.563Z,38.25
2023-01-17T13:13:05.502Z,33.66
2023-01-17T13:14:09.580Z,34.78
2023-01-17T13:15:11.530Z,37.02
2023-01-17T13:16:14.150Z,36.27
2023-01-17T13:17:17.813Z,33.51